sensor_id;sensor_type;location;lat;lon;timestamp;pressure;altitude;pressure_sealevel;temperature;humidity
18504;BME280;9381;54.244;10.074;2024-01-06T00:04:13;100189.88;;;2.81;100.00
18504;BME280;9381;54.244;10.074;2024-01-06T00:09:13;100207.84;;;2.73;100.00
18504;BME280;9381;54.244;10.074;2024-01-06T00:14:14;100211.09;;;2.83;100.00
18504;BME280;9381;54.244;10.074;2024-01-06T00:19:14;100223.66;;;2.97;100.00
18504;BME280;9381;54.244;10.074;2024-01-06T00:24:14;100220.09;;;2.82;100.00
18504;BME280;9381;54.244;10.074;2024-01-06T00:29:15;100218.94;;;2.84;100.00
18504;BME280;9381;54.244;10.074;2024-01-06T00:34:15;100216.63;;;2.96;100.00
18504;BME280;9381;54.244;10.074;2024-01-06T00:39:15;100225.66;;;2.95;100.00
18504;BME280;9381;54.244;10.074;2024-01-06T00:44:16;100228.00;;;2.98;100.00
18504;BME280;9381;54.244;10.074;2024-01-06T00:49:16;100227.03;;;2.91;100.00
18504;BME280;9381;54.244;10.074;2024-01-06T00:54:16;100235.44;;;2.88;100.00
18504;BME280;9381;54.244;10.074;2024-01-06T00:59:17;100231.06;;;2.87;100.00
18504;BME280;9381;54.244;10.074;2024-01-06T01:04:17;100236.06;;;2.90;100.00
18504;BME280;9381;54.244;10.074;2024-01-06T01:09:18;100237.63;;;2.62;100.00
18504;BME280;9381;54.244;10.074;2024-01-06T01:14:18;100244.78;;;2.84;100.00
18504;BME280;9381;54.244;10.074;2024-01-06T01:19:18;100243.06;;;2.91;100.00
18504;BME280;9381;54.244;10.074;2024-01-06T01:24:19;100252.69;;;3.00;100.00
18504;BME280;9381;54.244;10.074;2024-01-06T01:29:19;100256.13;;;2.86;100.00
18504;BME280;9381;54.244;10.074;2024-01-06T01:34:20;100265.66;;;3.03;99.86
18504;BME280;9381;54.244;10.074;2024-01-06T01:39:20;100262.25;;;2.94;99.92
18504;BME280;9381;54.244;10.074;2024-01-06T01:44:20;100272.44;;;2.91;99.27
18504;BME280;9381;54.244;10.074;2024-01-06T01:49:21;100270.25;;;2.94;99.59
18504;BME280;9381;54.244;10.074;2024-01-06T01:54:21;100271.38;;;3.00;99.33
18504;BME280;9381;54.244;10.074;2024-01-06T01:59:22;100273.88;;;3.01;100.00
18504;BME280;9381;54.244;10.074;2024-01-06T02:04:22;100269.94;;;3.12;99.65
18504;BME280;9381;54.244;10.074;2024-01-06T02:09:23;100267.25;;;3.12;98.89
18504;BME280;9381;54.244;10.074;2024-01-06T02:14:27;100286.34;;;3.09;100.00
18504;BME280;9381;54.244;10.074;2024-01-06T02:19:27;100285.25;;;3.18;98.83
18504;BME280;9381;54.244;10.074;2024-01-06T02:24:27;100293.91;;;3.20;99.47
18504;BME280;9381;54.244;10.074;2024-01-06T02:29:28;100297.53;;;3.27;98.81
18504;BME280;9381;54.244;10.074;2024-01-06T02:34:28;100305.31;;;3.14;99.33
18504;BME280;9381;54.244;10.074;2024-01-06T02:39:28;100307.75;;;3.23;98.98
18504;BME280;9381;54.244;10.074;2024-01-06T02:44:29;100316.94;;;3.21;99.16
18504;BME280;9381;54.244;10.074;2024-01-06T02:49:29;100314.16;;;3.14;98.75
18504;BME280;9381;54.244;10.074;2024-01-06T02:54:29;100313.31;;;3.14;99.42
18504;BME280;9381;54.244;10.074;2024-01-06T02:59:30;100316.38;;;3.11;99.69
18504;BME280;9381;54.244;10.074;2024-01-06T03:04:30;100324.69;;;3.16;98.41
18504;BME280;9381;54.244;10.074;2024-01-06T03:09:30;100323.94;;;3.22;98.44
18504;BME280;9381;54.244;10.074;2024-01-06T03:14:31;100319.81;;;3.19;98.41
18504;BME280;9381;54.244;10.074;2024-01-06T03:19:31;100326.78;;;3.06;98.31
18504;BME280;9381;54.244;10.074;2024-01-06T03:24:32;100335.72;;;3.13;98.79
18504;BME280;9381;54.244;10.074;2024-01-06T03:29:32;100336.56;;;3.13;99.05
18504;BME280;9381;54.244;10.074;2024-01-06T03:34:32;100338.44;;;3.27;98.60
18504;BME280;9381;54.244;10.074;2024-01-06T03:39:33;100340.56;;;3.09;99.55
18504;BME280;9381;54.244;10.074;2024-01-06T03:44:33;100339.91;;;2.85;100.00
18504;BME280;9381;54.244;10.074;2024-01-06T03:49:33;100346.59;;;2.89;100.00
18504;BME280;9381;54.244;10.074;2024-01-06T03:54:34;100356.53;;;2.95;100.00
18504;BME280;9381;54.244;10.074;2024-01-06T03:59:34;100358.19;;;2.96;100.00
18504;BME280;9381;54.244;10.074;2024-01-06T04:04:34;100369.44;;;3.14;99.50
18504;BME280;9381;54.244;10.074;2024-01-06T04:09:35;100368.72;;;2.97;100.00
18504;BME280;9381;54.244;10.074;2024-01-06T04:14:35;100377.97;;;2.87;100.00
18504;BME280;9381;54.244;10.074;2024-01-06T04:19:35;100383.31;;;3.09;100.00
18504;BME280;9381;54.244;10.074;2024-01-06T04:24:36;100384.03;;;2.81;100.00
18504;BME280;9381;54.244;10.074;2024-01-06T04:29:37;100392.88;;;3.04;100.00
18504;BME280;9381;54.244;10.074;2024-01-06T04:34:37;100389.72;;;3.00;100.00
18504;BME280;9381;54.244;10.074;2024-01-06T04:39:38;100392.59;;;2.99;100.00
18504;BME280;9381;54.244;10.074;2024-01-06T04:44:38;100396.16;;;3.14;100.00
18504;BME280;9381;54.244;10.074;2024-01-06T04:49:38;100402.47;;;3.21;100.00
18504;BME280;9381;54.244;10.074;2024-01-06T04:54:39;100418.81;;;2.95;100.00
18504;BME280;9381;54.244;10.074;2024-01-06T04:59:39;100432.69;;;3.21;100.00
18504;BME280;9381;54.244;10.074;2024-01-06T05:04:39;100440.31;;;3.32;100.00
18504;BME280;9381;54.244;10.074;2024-01-06T05:09:39;100432.25;;;3.10;100.00
18504;BME280;9381;54.244;10.074;2024-01-06T05:14:40;100444.16;;;3.30;100.00
18504;BME280;9381;54.244;10.074;2024-01-06T05:19:40;100451.38;;;3.29;100.00
18504;BME280;9381;54.244;10.074;2024-01-06T05:24:40;100453.78;;;3.39;99.61
18504;BME280;9381;54.244;10.074;2024-01-06T05:29:41;100465.19;;;3.33;99.87
18504;BME280;9381;54.244;10.074;2024-01-06T05:34:41;100473.47;;;3.15;99.57
18504;BME280;9381;54.244;10.074;2024-01-06T05:39:41;100467.97;;;3.17;100.00
18504;BME280;9381;54.244;10.074;2024-01-06T05:44:42;100489.59;;;3.30;99.71
18504;BME280;9381;54.244;10.074;2024-01-06T05:49:42;100494.16;;;3.21;99.37
18504;BME280;9381;54.244;10.074;2024-01-06T05:54:45;100509.00;;;3.24;99.02
18504;BME280;9381;54.244;10.074;2024-01-06T05:59:46;100518.75;;;3.17;98.96
18504;BME280;9381;54.244;10.074;2024-01-06T06:04:46;100529.91;;;3.20;98.83
18504;BME280;9381;54.244;10.074;2024-01-06T06:09:46;100531.44;;;3.15;98.51
18504;BME280;9381;54.244;10.074;2024-01-06T06:14:47;100538.72;;;3.29;97.94
18504;BME280;9381;54.244;10.074;2024-01-06T06:19:48;100541.72;;;3.34;98.24
18504;BME280;9381;54.244;10.074;2024-01-06T06:24:48;100551.19;;;3.36;97.25
18504;BME280;9381;54.244;10.074;2024-01-06T06:29:48;100561.41;;;3.33;97.82
18504;BME280;9381;54.244;10.074;2024-01-06T06:34:49;100568.88;;;3.15;97.97
18504;BME280;9381;54.244;10.074;2024-01-06T06:39:49;100568.09;;;3.37;98.23
18504;BME280;9381;54.244;10.074;2024-01-06T06:44:49;100571.13;;;3.34;98.38
18504;BME280;9381;54.244;10.074;2024-01-06T06:49:50;100590.50;;;3.28;98.48
18504;BME280;9381;54.244;10.074;2024-01-06T06:54:50;100602.53;;;3.24;98.91
18504;BME280;9381;54.244;10.074;2024-01-06T06:59:52;100615.91;;;3.24;98.81
18504;BME280;9381;54.244;10.074;2024-01-06T07:04:53;100623.97;;;3.16;98.05
18504;BME280;9381;54.244;10.074;2024-01-06T07:09:53;100626.94;;;3.21;97.24
18504;BME280;9381;54.244;10.074;2024-01-06T07:14:54;100629.44;;;3.22;96.88
18504;BME280;9381;54.244;10.074;2024-01-06T07:19:54;100639.28;;;3.22;97.53
18504;BME280;9381;54.244;10.074;2024-01-06T07:24:54;100644.34;;;3.09;97.72
18504;BME280;9381;54.244;10.074;2024-01-06T07:29:55;100651.50;;;3.16;96.93
18504;BME280;9381;54.244;10.074;2024-01-06T07:34:56;100664.72;;;3.18;97.16
18504;BME280;9381;54.244;10.074;2024-01-06T07:39:56;100662.06;;;3.02;97.58
18504;BME280;9381;54.244;10.074;2024-01-06T07:44:56;100673.38;;;3.20;97.61
18504;BME280;9381;54.244;10.074;2024-01-06T07:49:57;100676.91;;;3.12;97.26
18504;BME280;9381;54.244;10.074;2024-01-06T07:54:57;100677.72;;;3.21;96.72
18504;BME280;9381;54.244;10.074;2024-01-06T07:59:57;100683.56;;;3.16;96.44
18504;BME280;9381;54.244;10.074;2024-01-06T08:04:58;100692.06;;;3.28;95.96
18504;BME280;9381;54.244;10.074;2024-01-06T08:09:58;100707.97;;;3.21;96.12
18504;BME280;9381;54.244;10.074;2024-01-06T08:14:58;100703.25;;;3.31;95.85
18504;BME280;9381;54.244;10.074;2024-01-06T08:19:59;100709.09;;;3.35;95.44
18504;BME280;9381;54.244;10.074;2024-01-06T08:25:00;100721.13;;;3.31;96.33
18504;BME280;9381;54.244;10.074;2024-01-06T08:30:00;100737.50;;;3.28;96.05
18504;BME280;9381;54.244;10.074;2024-01-06T08:35:01;100743.13;;;3.49;96.20
18504;BME280;9381;54.244;10.074;2024-01-06T08:40:01;100753.56;;;3.28;95.73
18504;BME280;9381;54.244;10.074;2024-01-06T08:45:04;100763.59;;;3.18;97.34
18504;BME280;9381;54.244;10.074;2024-01-06T08:50:05;100774.28;;;3.26;96.28
18504;BME280;9381;54.244;10.074;2024-01-06T08:55:06;100773.28;;;3.11;95.85
18504;BME280;9381;54.244;10.074;2024-01-06T09:00:07;100786.63;;;3.03;98.00
18504;BME280;9381;54.244;10.074;2024-01-06T09:05:09;100794.81;;;2.93;98.57
18504;BME280;9381;54.244;10.074;2024-01-06T09:10:09;100811.50;;;2.95;98.56
18504;BME280;9381;54.244;10.074;2024-01-06T09:15:10;100809.69;;;3.12;98.63
18504;BME280;9381;54.244;10.074;2024-01-06T09:20:11;100822.72;;;3.07;98.70
18504;BME280;9381;54.244;10.074;2024-01-06T09:25:11;100842.22;;;2.99;99.72
18504;BME280;9381;54.244;10.074;2024-01-06T09:30:13;100840.91;;;3.27;99.36
18504;BME280;9381;54.244;10.074;2024-01-06T09:35:13;100835.38;;;3.05;99.82
18504;BME280;9381;54.244;10.074;2024-01-06T09:40:21;100854.75;;;2.91;100.00
18504;BME280;9381;54.244;10.074;2024-01-06T09:45:22;100862.94;;;2.97;100.00
18504;BME280;9381;54.244;10.074;2024-01-06T09:50:22;100865.09;;;2.94;100.00
18504;BME280;9381;54.244;10.074;2024-01-06T09:55:25;100863.28;;;3.26;100.00
18504;BME280;9381;54.244;10.074;2024-01-06T10:00:28;100882.47;;;2.90;100.00
18504;BME280;9381;54.244;10.074;2024-01-06T10:05:28;100883.00;;;3.09;100.00
18504;BME280;9381;54.244;10.074;2024-01-06T10:10:33;100876.66;;;3.10;99.50
18504;BME280;9381;54.244;10.074;2024-01-06T10:15:35;100889.84;;;3.12;99.75
18504;BME280;9381;54.244;10.074;2024-01-06T10:20:36;100896.06;;;3.20;99.82
18504;BME280;9381;54.244;10.074;2024-01-06T10:25:36;100899.91;;;3.26;98.97
18504;BME280;9381;54.244;10.074;2024-01-06T10:30:37;100897.72;;;3.21;99.36
18504;BME280;9381;54.244;10.074;2024-01-06T10:35:39;100909.25;;;3.30;99.41
18504;BME280;9381;54.244;10.074;2024-01-06T10:40:39;100900.56;;;3.68;96.24
18504;BME280;9381;54.244;10.074;2024-01-06T10:45:39;100907.25;;;3.64;96.15
18504;BME280;9381;54.244;10.074;2024-01-06T10:50:40;100924.16;;;3.56;95.74
18504;BME280;9381;54.244;10.074;2024-01-06T10:55:41;100920.78;;;3.62;95.93
18504;BME280;9381;54.244;10.074;2024-01-06T11:00:41;100920.63;;;3.72;95.47
18504;BME280;9381;54.244;10.074;2024-01-06T11:05:42;100927.66;;;3.73;95.38
18504;BME280;9381;54.244;10.074;2024-01-06T11:10:44;100936.34;;;3.67;94.89
18504;BME280;9381;54.244;10.074;2024-01-06T11:15:50;100927.13;;;3.53;94.94
18504;BME280;9381;54.244;10.074;2024-01-06T11:26:13;100939.84;;;3.59;96.04
18504;BME280;9381;54.244;10.074;2024-01-06T11:31:14;100936.63;;;3.24;96.80
18504;BME280;9381;54.244;10.074;2024-01-06T11:36:15;100947.03;;;3.35;97.64
18504;BME280;9381;54.244;10.074;2024-01-06T11:41:48;100947.66;;;3.21;98.29
18504;BME280;9381;54.244;10.074;2024-01-06T11:46:49;100936.63;;;3.24;98.00
18504;BME280;9381;54.244;10.074;2024-01-06T11:51:50;100943.00;;;3.31;98.49
18504;BME280;9381;54.244;10.074;2024-01-06T11:56:50;100950.38;;;3.45;97.83
18504;BME280;9381;54.244;10.074;2024-01-06T12:01:53;100957.22;;;3.55;95.80
18504;BME280;9381;54.244;10.074;2024-01-06T12:07:04;100961.25;;;3.67;95.60
18504;BME280;9381;54.244;10.074;2024-01-06T12:12:05;100958.06;;;3.72;94.12
18504;BME280;9381;54.244;10.074;2024-01-06T12:17:06;100965.06;;;3.57;94.58
18504;BME280;9381;54.244;10.074;2024-01-06T12:22:11;100970.25;;;3.50;95.09
18504;BME280;9381;54.244;10.074;2024-01-06T12:27:12;100966.75;;;3.58;94.59
18504;BME280;9381;54.244;10.074;2024-01-06T12:32:12;100965.75;;;3.67;94.73
18504;BME280;9381;54.244;10.074;2024-01-06T12:37:13;100970.78;;;3.70;94.79
18504;BME280;9381;54.244;10.074;2024-01-06T12:42:15;100972.47;;;3.71;94.23
18504;BME280;9381;54.244;10.074;2024-01-06T12:47:17;100972.63;;;3.77;94.68
18504;BME280;9381;54.244;10.074;2024-01-06T12:52:17;100977.81;;;3.71;94.22
18504;BME280;9381;54.244;10.074;2024-01-06T12:57:17;100981.97;;;3.81;93.88
18504;BME280;9381;54.244;10.074;2024-01-06T13:02:18;100981.97;;;3.73;94.41
18504;BME280;9381;54.244;10.074;2024-01-06T13:07:21;100989.84;;;3.75;93.66
18504;BME280;9381;54.244;10.074;2024-01-06T13:12:22;100988.50;;;3.71;93.21
18504;BME280;9381;54.244;10.074;2024-01-06T13:17:23;100998.53;;;3.77;92.46
18504;BME280;9381;54.244;10.074;2024-01-06T13:22:24;100996.19;;;3.66;92.61
18504;BME280;9381;54.244;10.074;2024-01-06T13:27:26;101009.41;;;3.83;92.56
18504;BME280;9381;54.244;10.074;2024-01-06T13:32:29;101015.28;;;3.79;92.10
18504;BME280;9381;54.244;10.074;2024-01-06T13:37:31;101013.75;;;3.68;92.85
18504;BME280;9381;54.244;10.074;2024-01-06T13:42:31;101029.63;;;3.78;92.62
18504;BME280;9381;54.244;10.074;2024-01-06T13:47:32;101045.47;;;3.55;93.48
18504;BME280;9381;54.244;10.074;2024-01-06T13:52:33;101048.00;;;3.65;94.27
18504;BME280;9381;54.244;10.074;2024-01-06T13:57:34;101054.03;;;3.75;96.03
18504;BME280;9381;54.244;10.074;2024-01-06T14:02:35;101060.06;;;3.77;95.81
18504;BME280;9381;54.244;10.074;2024-01-06T14:07:35;101058.06;;;3.71;96.60
18504;BME280;9381;54.244;10.074;2024-01-06T14:12:38;101056.06;;;3.81;95.94
18504;BME280;9381;54.244;10.074;2024-01-06T14:17:39;101061.41;;;3.81;95.76
18504;BME280;9381;54.244;10.074;2024-01-06T14:22:40;101080.75;;;3.59;96.07
18504;BME280;9381;54.244;10.074;2024-01-06T14:27:41;101093.28;;;3.50;96.59
18504;BME280;9381;54.244;10.074;2024-01-06T14:32:41;101096.03;;;3.74;95.87
18504;BME280;9381;54.244;10.074;2024-01-06T14:37:42;101101.84;;;3.70;95.76
18504;BME280;9381;54.244;10.074;2024-01-06T14:42:44;101102.69;;;3.70;95.28
18504;BME280;9381;54.244;10.074;2024-01-06T14:47:44;101109.84;;;3.62;96.02
18504;BME280;9381;54.244;10.074;2024-01-06T14:52:45;101115.22;;;3.70;94.51
18504;BME280;9381;54.244;10.074;2024-01-06T14:57:45;101125.09;;;3.69;94.37
18504;BME280;9381;54.244;10.074;2024-01-06T15:02:46;101131.28;;;3.70;93.81
18504;BME280;9381;54.244;10.074;2024-01-06T15:07:46;101138.28;;;3.63;93.64
18504;BME280;9381;54.244;10.074;2024-01-06T15:12:47;101144.63;;;3.62;93.23
18504;BME280;9381;54.244;10.074;2024-01-06T15:17:48;101149.47;;;3.58;93.32
18504;BME280;9381;54.244;10.074;2024-01-06T15:22:48;101156.63;;;3.58;93.94
18504;BME280;9381;54.244;10.074;2024-01-06T15:27:49;101163.06;;;3.73;93.81
18504;BME280;9381;54.244;10.074;2024-01-06T15:32:49;101166.06;;;3.78;93.88
18504;BME280;9381;54.244;10.074;2024-01-06T15:37:49;101178.75;;;3.76;94.50
18504;BME280;9381;54.244;10.074;2024-01-06T15:42:50;101188.16;;;3.80;94.58
18504;BME280;9381;54.244;10.074;2024-01-06T15:47:50;101200.16;;;3.76;95.05
18504;BME280;9381;54.244;10.074;2024-01-06T15:52:50;101206.47;;;3.67;95.12
18504;BME280;9381;54.244;10.074;2024-01-06T15:57:51;101211.53;;;3.70;95.46
18504;BME280;9381;54.244;10.074;2024-01-06T16:02:51;101214.22;;;3.70;94.63
18504;BME280;9381;54.244;10.074;2024-01-06T16:07:52;101220.84;;;3.66;94.28
18504;BME280;9381;54.244;10.074;2024-01-06T16:12:52;101228.66;;;3.51;92.39
18504;BME280;9381;54.244;10.074;2024-01-06T16:17:52;101233.13;;;3.43;90.68
18504;BME280;9381;54.244;10.074;2024-01-06T16:22:53;101241.88;;;3.53;89.22
18504;BME280;9381;54.244;10.074;2024-01-06T16:27:53;101239.53;;;3.58;88.47
18504;BME280;9381;54.244;10.074;2024-01-06T16:32:55;101242.03;;;3.51;87.51
18504;BME280;9381;54.244;10.074;2024-01-06T16:37:55;101255.59;;;3.58;87.16
18504;BME280;9381;54.244;10.074;2024-01-06T16:42:57;101261.31;;;3.63;87.09
18504;BME280;9381;54.244;10.074;2024-01-06T16:47:57;101265.53;;;3.73;86.52
18504;BME280;9381;54.244;10.074;2024-01-06T16:52:58;101271.63;;;3.58;86.35
18504;BME280;9381;54.244;10.074;2024-01-06T16:57:58;101275.69;;;3.62;85.49
18504;BME280;9381;54.244;10.074;2024-01-06T17:03:00;101280.75;;;3.73;85.61
18504;BME280;9381;54.244;10.074;2024-01-06T17:08:00;101285.00;;;3.58;85.51
18504;BME280;9381;54.244;10.074;2024-01-06T17:13:01;101287.06;;;3.64;84.82
18504;BME280;9381;54.244;10.074;2024-01-06T17:18:02;101289.00;;;3.54;84.47
18504;BME280;9381;54.244;10.074;2024-01-06T17:23:02;101294.97;;;3.48;83.60
18504;BME280;9381;54.244;10.074;2024-01-06T17:28:02;101298.09;;;3.61;83.00
18504;BME280;9381;54.244;10.074;2024-01-06T17:33:03;101305.59;;;3.57;83.27
18504;BME280;9381;54.244;10.074;2024-01-06T17:38:03;101317.22;;;3.48;82.77
18504;BME280;9381;54.244;10.074;2024-01-06T17:43:04;101324.06;;;3.51;83.48
18504;BME280;9381;54.244;10.074;2024-01-06T17:48:06;101321.44;;;3.59;83.17
18504;BME280;9381;54.244;10.074;2024-01-06T17:53:07;101332.75;;;3.45;82.63
18504;BME280;9381;54.244;10.074;2024-01-06T17:58:08;101335.72;;;3.42;82.63
18504;BME280;9381;54.244;10.074;2024-01-06T18:03:08;101334.47;;;3.54;82.12
18504;BME280;9381;54.244;10.074;2024-01-06T18:08:08;101345.91;;;3.64;81.96
18504;BME280;9381;54.244;10.074;2024-01-06T18:13:09;101345.28;;;3.70;82.06
18504;BME280;9381;54.244;10.074;2024-01-06T18:18:09;101346.47;;;3.50;82.45
18504;BME280;9381;54.244;10.074;2024-01-06T18:23:12;101367.50;;;3.45;81.65
18504;BME280;9381;54.244;10.074;2024-01-06T18:28:13;101366.97;;;3.67;80.95
18504;BME280;9381;54.244;10.074;2024-01-06T18:33:13;101381.34;;;3.66;81.65
18504;BME280;9381;54.244;10.074;2024-01-06T18:38:13;101383.22;;;3.65;81.73
18504;BME280;9381;54.244;10.074;2024-01-06T18:43:14;101387.03;;;3.63;80.68
18504;BME280;9381;54.244;10.074;2024-01-06T18:48:14;101392.38;;;3.63;80.53
18504;BME280;9381;54.244;10.074;2024-01-06T18:53:14;101401.63;;;3.68;80.66
18504;BME280;9381;54.244;10.074;2024-01-06T18:58:15;101405.50;;;3.74;81.25
18504;BME280;9381;54.244;10.074;2024-01-06T19:03:15;101411.38;;;3.60;81.56
18504;BME280;9381;54.244;10.074;2024-01-06T19:08:16;101421.41;;;3.58;81.75
18504;BME280;9381;54.244;10.074;2024-01-06T19:13:16;101425.47;;;3.62;81.12
18504;BME280;9381;54.244;10.074;2024-01-06T19:18:17;101423.94;;;3.59;82.06
18504;BME280;9381;54.244;10.074;2024-01-06T19:23:17;101443.66;;;3.58;82.63
18504;BME280;9381;54.244;10.074;2024-01-06T19:28:19;101448.91;;;3.68;83.17
18504;BME280;9381;54.244;10.074;2024-01-06T19:33:19;101444.50;;;3.59;82.10
18504;BME280;9381;54.244;10.074;2024-01-06T19:38:20;101444.50;;;3.59;82.36
18504;BME280;9381;54.244;10.074;2024-01-06T19:43:20;101455.31;;;3.75;81.21
18504;BME280;9381;54.244;10.074;2024-01-06T19:48:20;101469.31;;;3.69;81.54
18504;BME280;9381;54.244;10.074;2024-01-06T19:53:21;101474.22;;;3.56;80.11
18504;BME280;9381;54.244;10.074;2024-01-06T19:58:22;101473.16;;;3.66;80.71
18504;BME280;9381;54.244;10.074;2024-01-06T20:03:22;101486.06;;;3.71;79.94
18504;BME280;9381;54.244;10.074;2024-01-06T20:08:22;101483.53;;;3.69;80.11
18504;BME280;9381;54.244;10.074;2024-01-06T20:13:23;101494.03;;;3.63;79.82
18504;BME280;9381;54.244;10.074;2024-01-06T20:18:24;101498.22;;;3.65;80.19
18504;BME280;9381;54.244;10.074;2024-01-06T20:23:29;101496.59;;;3.72;81.11
18504;BME280;9381;54.244;10.074;2024-01-06T20:28:29;101506.41;;;3.64;81.23
18504;BME280;9381;54.244;10.074;2024-01-06T20:33:30;101501.06;;;3.64;81.03
18504;BME280;9381;54.244;10.074;2024-01-06T20:38:33;101503.97;;;3.53;80.64
18504;BME280;9381;54.244;10.074;2024-01-06T20:43:34;101500.13;;;3.73;81.21
18504;BME280;9381;54.244;10.074;2024-01-06T20:48:35;101514.94;;;3.50;80.89
18504;BME280;9381;54.244;10.074;2024-01-06T20:53:35;101513.13;;;3.68;79.87
18504;BME280;9381;54.244;10.074;2024-01-06T20:58:36;101515.66;;;3.69;79.70
18504;BME280;9381;54.244;10.074;2024-01-06T21:03:36;101520.00;;;3.70;79.63
18504;BME280;9381;54.244;10.074;2024-01-06T21:08:38;101518.63;;;3.84;79.80
18504;BME280;9381;54.244;10.074;2024-01-06T21:13:39;101522.59;;;3.80;80.00
18504;BME280;9381;54.244;10.074;2024-01-06T21:18:39;101525.97;;;3.82;80.33
18504;BME280;9381;54.244;10.074;2024-01-06T21:23:40;101527.63;;;3.83;81.02
18504;BME280;9381;54.244;10.074;2024-01-06T21:28:40;101531.25;;;3.74;80.25
18504;BME280;9381;54.244;10.074;2024-01-06T21:33:40;101529.91;;;3.78;80.39
18504;BME280;9381;54.244;10.074;2024-01-06T21:38:41;101541.47;;;3.78;80.41
18504;BME280;9381;54.244;10.074;2024-01-06T21:43:43;101549.03;;;3.83;80.54
18504;BME280;9381;54.244;10.074;2024-01-06T21:48:43;101561.59;;;3.65;80.76
18504;BME280;9381;54.244;10.074;2024-01-06T21:53:44;101560.81;;;3.55;80.25
18504;BME280;9381;54.244;10.074;2024-01-06T21:58:44;101571.75;;;3.96;80.39
18504;BME280;9381;54.244;10.074;2024-01-06T22:03:45;101578.41;;;3.75;79.57
18504;BME280;9381;54.244;10.074;2024-01-06T22:08:45;101582.38;;;3.71;78.54
18504;BME280;9381;54.244;10.074;2024-01-06T22:13:45;101593.00;;;3.63;78.07
18504;BME280;9381;54.244;10.074;2024-01-06T22:18:46;101596.53;;;3.81;77.75
18504;BME280;9381;54.244;10.074;2024-01-06T22:23:46;101603.47;;;3.74;77.03
18504;BME280;9381;54.244;10.074;2024-01-06T22:28:46;101624.47;;;3.69;76.49
18504;BME280;9381;54.244;10.074;2024-01-06T22:33:47;101619.56;;;3.64;75.48
18504;BME280;9381;54.244;10.074;2024-01-06T22:38:47;101623.09;;;3.65;75.83
18504;BME280;9381;54.244;10.074;2024-01-06T22:43:48;101634.81;;;3.64;75.93
18504;BME280;9381;54.244;10.074;2024-01-06T22:48:49;101632.28;;;3.62;75.06
18504;BME280;9381;54.244;10.074;2024-01-06T22:53:49;101647.19;;;3.65;76.38
18504;BME280;9381;54.244;10.074;2024-01-06T22:58:50;101649.75;;;3.57;76.84
18504;BME280;9381;54.244;10.074;2024-01-06T23:03:50;101648.97;;;3.74;76.59
18504;BME280;9381;54.244;10.074;2024-01-06T23:08:50;101654.53;;;3.63;76.97
18504;BME280;9381;54.244;10.074;2024-01-06T23:13:51;101667.66;;;3.56;77.14
18504;BME280;9381;54.244;10.074;2024-01-06T23:18:51;101664.88;;;3.75;77.02
18504;BME280;9381;54.244;10.074;2024-01-06T23:23:55;101668.28;;;3.68;77.46
18504;BME280;9381;54.244;10.074;2024-01-06T23:28:55;101672.03;;;3.57;76.34
18504;BME280;9381;54.244;10.074;2024-01-06T23:33:56;101681.22;;;3.72;76.75
18504;BME280;9381;54.244;10.074;2024-01-06T23:38:56;101692.34;;;3.68;76.69
18504;BME280;9381;54.244;10.074;2024-01-06T23:43:57;101698.41;;;3.70;76.76
18504;BME280;9381;54.244;10.074;2024-01-06T23:48:58;101698.41;;;3.70;77.28
18504;BME280;9381;54.244;10.074;2024-01-06T23:53:58;101692.88;;;3.54;76.75
18504;BME280;9381;54.244;10.074;2024-01-06T23:58:58;101701.69;;;3.64;76.84
